createdAt,value
2022-09-23T00:01:03.330Z,48.93
2022-09-23T00:03:31.732Z,48.82
2022-09-23T00:06:02.689Z,48.64
2022-09-23T00:08:29.976Z,49.01
2022-09-23T00:10:57.399Z,48.61
2022-09-23T00:13:25.124Z,49.04
2022-09-23T00:15:52.488Z,49.03
2022-09-23T00:18:20.804Z,48.82
2022-09-23T00:20:47.988Z,48.95
2022-09-23T00:23:14.869Z,48.79
2022-09-23T00:25:41.446Z,48.87
2022-09-23T00:28:07.924Z,48.88
2022-09-23T00:30:34.504Z,49.12
2022-09-23T00:33:01.042Z,49.00
2022-09-23T00:35:27.581Z,48.86
2022-09-23T00:37:54.103Z,48.81
2022-09-23T00:40:20.811Z,49.01
2022-09-23T00:42:52.173Z,49.67
2022-09-23T00:45:19.128Z,49.00
2022-09-23T00:48:01.442Z,50.03
2022-09-23T00:50:39.606Z,49.87
2022-09-23T00:53:10.484Z,49.33
2022-09-23T00:55:43.092Z,49.93
2022-09-23T00:58:14.946Z,49.38
2022-09-23T01:00:42.531Z,49.33
2022-09-23T01:03:09.559Z,49.23
2022-09-23T01:05:36.666Z,49.36
2022-09-23T01:08:04.937Z,49.56
2022-09-23T01:10:43.096Z,49.90
2022-09-23T01:13:34.008Z,49.44
2022-09-23T01:16:26.712Z,49.70
2022-09-23T01:19:18.124Z,48.89
2022-09-23T01:21:58.128Z,48.79
2022-09-23T01:24:59.497Z,49.20
2022-09-23T01:27:28.915Z,49.17
2022-09-23T01:30:01.359Z,48.74
2022-09-23T01:32:27.794Z,48.62
2022-09-23T01:35:13.112Z,48.22
2022-09-23T01:38:11.993Z,49.18
2022-09-23T01:40:59.896Z,49.50
2022-09-23T01:43:47.322Z,49.53
2022-09-23T01:46:22.863Z,48.96
2022-09-23T01:49:00.760Z,48.70
2022-09-23T01:51:32.929Z,49.04
2022-09-23T01:54:15.999Z,49.43
2022-09-23T01:56:51.888Z,48.99
2022-09-23T01:59:29.101Z,48.88
2022-09-23T02:02:04.387Z,48.75
2022-09-23T02:04:39.603Z,48.80
2022-09-23T02:07:15.251Z,48.74
2022-09-23T02:09:46.693Z,48.68
2022-09-23T02:12:18.933Z,48.53
2022-09-23T02:15:14.449Z,48.60
2022-09-23T02:17:52.021Z,49.36
2022-09-23T02:20:24.234Z,48.84
2022-09-23T02:23:06.311Z,48.82
2022-09-23T02:25:54.393Z,48.84
2022-09-23T02:28:39.478Z,49.30
2022-09-23T02:31:16.448Z,48.96
2022-09-23T02:34:05.687Z,49.02
2022-09-23T02:37:00.000Z,49.22
2022-09-23T02:39:38.105Z,49.14
2022-09-23T02:42:10.686Z,48.82
2022-09-23T02:44:37.292Z,48.55
2022-09-23T02:47:03.952Z,48.54
2022-09-23T02:49:32.257Z,48.92
2022-09-23T02:52:04.699Z,49.23
2022-09-23T02:54:35.823Z,49.30
2022-09-23T02:57:05.735Z,49.20
2022-09-23T02:59:34.053Z,49.13
2022-09-23T03:02:20.709Z,49.22
2022-09-23T03:05:03.858Z,49.35
2022-09-23T03:07:45.840Z,49.66
2022-09-23T03:10:22.760Z,49.65
2022-09-23T03:13:26.113Z,49.39
2022-09-23T03:16:08.656Z,49.30
2022-09-23T03:18:59.007Z,49.25
2022-09-23T03:21:29.000Z,49.43
2022-09-23T03:23:59.549Z,49.23
2022-09-23T03:26:36.201Z,49.53
2022-09-23T03:29:05.643Z,49.61
2022-09-23T03:31:33.987Z,49.14
2022-09-23T03:34:03.456Z,49.54
2022-09-23T03:36:51.607Z,49.99
2022-09-23T03:39:30.316Z,49.73
2022-09-23T03:42:01.270Z,49.96
2022-09-23T03:44:29.228Z,49.48
2022-09-23T03:47:02.406Z,49.71
2022-09-23T03:49:34.930Z,49.47
2022-09-23T03:52:02.514Z,49.32
2022-09-23T03:54:30.067Z,49.19
2022-09-23T03:56:58.342Z,49.40
2022-09-23T03:59:25.605Z,49.17
2022-09-23T04:01:52.258Z,49.05
2022-09-23T04:04:19.032Z,48.74
2022-09-23T04:06:46.464Z,48.90
2022-09-23T04:09:13.132Z,48.85
2022-09-23T04:11:39.810Z,49.29
2022-09-23T04:14:07.225Z,49.35
2022-09-23T04:16:33.879Z,49.54
2022-09-23T04:19:00.356Z,49.74
2022-09-23T04:21:27.041Z,49.45
2022-09-23T04:23:53.540Z,49.38
2022-09-23T04:26:20.056Z,49.65
2022-09-23T04:28:46.562Z,49.57
2022-09-23T04:31:13.189Z,49.50
2022-09-23T04:33:39.741Z,49.47
2022-09-23T04:36:06.543Z,49.58
2022-09-23T04:38:33.220Z,49.50
2022-09-23T04:40:59.854Z,49.43
2022-09-23T04:43:26.393Z,49.40
2022-09-23T04:46:05.328Z,50.12
2022-09-23T04:48:32.284Z,49.69
2022-09-23T04:51:07.212Z,50.46
2022-09-23T04:53:36.006Z,49.91
2022-09-23T04:56:07.460Z,50.01
2022-09-23T04:58:34.704Z,49.85
2022-09-23T05:01:24.915Z,50.44
2022-09-23T05:03:53.540Z,49.66
2022-09-23T05:06:20.723Z,50.08
2022-09-23T05:08:52.256Z,50.50
2022-09-23T05:11:19.036Z,50.43
2022-09-23T05:13:48.087Z,50.28
2022-09-23T05:16:15.490Z,50.05
2022-09-23T05:18:43.936Z,50.20
2022-09-23T05:21:11.922Z,50.51
2022-09-23T05:23:39.833Z,50.49
2022-09-23T05:26:11.821Z,51.03
2022-09-23T05:28:39.465Z,50.37
2022-09-23T05:31:19.948Z,50.91
2022-09-23T05:33:58.381Z,50.62
2022-09-23T05:36:26.022Z,49.85
2022-09-23T05:38:52.778Z,49.90
2022-09-23T05:41:23.136Z,50.35
2022-09-23T05:43:53.886Z,50.33
2022-09-23T05:46:26.394Z,50.45
2022-09-23T05:48:53.269Z,50.26
2022-09-23T05:51:22.023Z,50.29
2022-09-23T05:53:52.555Z,50.33
2022-09-23T05:56:22.413Z,50.27
2022-09-23T05:58:50.433Z,49.88
2022-09-23T06:01:22.386Z,50.13
2022-09-23T06:03:49.986Z,49.98
2022-09-23T06:06:18.509Z,49.79
2022-09-23T06:08:46.297Z,49.96
2022-09-23T06:11:13.874Z,49.84
2022-09-23T06:13:41.353Z,49.99
2022-09-23T06:16:11.043Z,49.84
2022-09-23T06:18:44.543Z,49.93
2022-09-23T06:21:15.991Z,49.75
2022-09-23T06:23:44.080Z,49.85
2022-09-23T06:26:12.713Z,49.61
2022-09-23T06:28:41.255Z,49.67
2022-09-23T06:31:13.503Z,49.72
2022-09-23T06:33:40.558Z,49.63
2022-09-23T06:36:07.867Z,49.55
2022-09-23T06:38:35.128Z,49.58
2022-09-23T06:41:03.271Z,49.36
2022-09-23T06:43:30.668Z,49.49
2022-09-23T06:46:01.839Z,49.36
2022-09-23T06:48:29.164Z,49.57
2022-09-23T06:50:59.689Z,49.59
2022-09-23T06:53:26.238Z,49.37
2022-09-23T06:56:06.974Z,49.64
2022-09-23T06:58:35.526Z,49.25
2022-09-23T07:01:04.561Z,49.28
2022-09-23T07:03:31.905Z,48.96
2022-09-23T07:05:59.196Z,49.21
2022-09-23T07:08:27.345Z,49.26
2022-09-23T07:10:55.304Z,49.25
2022-09-23T07:13:21.836Z,49.10
2022-09-23T07:15:58.405Z,49.32
2022-09-23T07:18:26.416Z,49.24
2022-09-23T07:20:54.711Z,49.08
2022-09-23T07:23:21.259Z,49.12
2022-09-23T07:25:49.515Z,49.00
2022-09-23T07:28:16.039Z,49.10
2022-09-23T07:30:56.504Z,49.05
2022-09-23T07:33:33.125Z,49.00
2022-09-23T07:36:11.132Z,48.98
2022-09-23T07:38:41.631Z,48.81
2022-09-23T07:41:14.192Z,48.84
2022-09-23T07:43:40.863Z,48.92
2022-09-23T07:46:11.282Z,48.81
2022-09-23T07:48:39.010Z,48.98
2022-09-23T07:51:11.599Z,49.17
2022-09-23T07:53:38.221Z,48.87
2022-09-23T07:56:06.604Z,48.77
2022-09-23T07:58:34.485Z,48.68
2022-09-23T08:01:12.058Z,48.81
2022-09-23T08:03:39.874Z,48.64
2022-09-23T08:06:12.285Z,48.72
2022-09-23T08:08:40.703Z,48.53
2022-09-23T08:11:10.309Z,48.37
2022-09-23T08:13:37.140Z,48.17
2022-09-23T08:16:04.540Z,48.40
2022-09-23T08:18:31.113Z,48.10
2022-09-23T08:20:57.744Z,47.84
2022-09-23T08:23:24.367Z,47.91
2022-09-23T08:25:59.708Z,47.75
2022-09-23T08:28:27.130Z,47.83
2022-09-23T08:30:53.714Z,47.53
2022-09-23T08:33:23.326Z,47.60
2022-09-23T08:35:50.507Z,47.28
2022-09-23T08:38:17.017Z,47.38
2022-09-23T08:40:47.502Z,47.13
2022-09-23T08:43:35.982Z,46.87
2022-09-23T08:46:06.114Z,46.70
2022-09-23T08:48:38.570Z,46.53
2022-09-23T08:51:11.123Z,46.77
2022-09-23T08:53:38.334Z,46.86
2022-09-23T08:56:17.310Z,46.40
2022-09-23T08:58:52.880Z,46.01
2022-09-23T09:01:23.156Z,46.43
2022-09-23T09:03:56.709Z,46.46
2022-09-23T09:06:23.171Z,46.55
2022-09-23T09:08:57.050Z,46.24
2022-09-23T09:11:31.390Z,46.24
2022-09-23T09:14:24.341Z,45.99
2022-09-23T09:17:04.863Z,45.57
2022-09-23T09:20:19.069Z,45.88
2022-09-23T09:23:04.624Z,46.19
2022-09-23T09:25:50.094Z,46.02
2022-09-23T09:28:26.637Z,45.25
2022-09-23T09:31:05.807Z,45.13
2022-09-23T09:33:44.794Z,45.31
2022-09-23T09:36:25.168Z,45.67
2022-09-23T09:38:53.385Z,45.85
2022-09-23T09:41:24.609Z,45.48
2022-09-23T09:43:59.255Z,45.72
2022-09-23T09:46:25.733Z,45.46
2022-09-23T09:49:02.788Z,45.05
2022-09-23T09:51:29.686Z,45.15
2022-09-23T09:54:17.239Z,44.85
2022-09-23T09:56:45.007Z,45.22
2022-09-23T09:59:18.191Z,44.75
2022-09-23T10:01:45.877Z,44.76
2022-09-23T10:04:35.020Z,44.51
2022-09-23T10:07:15.562Z,44.85
2022-09-23T10:09:50.057Z,44.70
2022-09-23T10:12:22.116Z,44.87
2022-09-23T10:14:51.444Z,44.81
2022-09-23T10:17:22.125Z,44.58
2022-09-23T10:19:55.803Z,44.95
2022-09-23T10:22:30.072Z,44.55
2022-09-23T10:25:01.567Z,44.74
2022-09-23T10:27:33.354Z,44.62
2022-09-23T10:30:03.662Z,44.85
2022-09-23T10:32:43.276Z,44.73
2022-09-23T10:35:09.761Z,44.66
2022-09-23T10:37:40.346Z,43.95
2022-09-23T10:40:34.682Z,44.70
2022-09-23T10:43:38.374Z,44.86
2022-09-23T10:46:38.910Z,45.27
2022-09-23T10:49:41.141Z,44.50
2022-09-23T10:52:36.146Z,44.32
2022-09-23T10:55:11.788Z,44.40
2022-09-23T10:57:47.432Z,44.15
2022-09-23T11:00:37.952Z,44.11
2022-09-23T11:03:41.725Z,44.25
2022-09-23T11:06:14.215Z,44.52
2022-09-23T11:08:59.269Z,44.05
2022-09-23T11:11:30.568Z,44.12
2022-09-23T11:14:23.679Z,43.91
2022-09-23T11:17:14.729Z,43.70
2022-09-23T11:19:45.292Z,43.96
2022-09-23T11:22:38.078Z,44.17
2022-09-23T11:25:28.079Z,43.78
2022-09-23T11:28:13.419Z,44.01
2022-09-23T11:30:49.002Z,44.27
2022-09-23T11:33:49.228Z,44.38
2022-09-23T11:36:26.117Z,44.15
2022-09-23T11:38:54.833Z,44.37
2022-09-23T11:41:27.166Z,44.00
2022-09-23T11:44:28.357Z,43.91
2022-09-23T11:47:03.363Z,43.65
2022-09-23T11:49:39.376Z,43.31
2022-09-23T11:52:12.775Z,42.94
2022-09-23T11:55:01.961Z,43.05
2022-09-23T11:57:45.910Z,43.52
2022-09-23T12:00:24.322Z,42.89
2022-09-23T12:03:18.493Z,43.00
2022-09-23T12:05:48.302Z,43.51
2022-09-23T12:08:30.177Z,42.56
2022-09-23T12:11:06.609Z,42.87
2022-09-23T12:13:51.570Z,42.90
2022-09-23T12:16:49.240Z,42.74
2022-09-23T12:19:29.282Z,42.66
2022-09-23T12:22:04.582Z,42.60
2022-09-23T12:24:58.861Z,42.02
2022-09-23T12:27:36.925Z,41.70
2022-09-23T12:30:16.971Z,41.91
2022-09-23T12:32:44.171Z,41.82
2022-09-23T12:35:35.652Z,41.33
2022-09-23T12:38:02.290Z,41.67
2022-09-23T12:40:35.434Z,41.10
2022-09-23T12:43:02.655Z,41.62
2022-09-23T12:45:33.811Z,41.25
2022-09-23T12:48:23.709Z,41.57
2022-09-23T12:51:07.758Z,41.87
2022-09-23T12:53:34.289Z,41.90
2022-09-23T12:56:13.962Z,41.77
2022-09-23T12:58:43.429Z,41.87
2022-09-23T13:01:18.218Z,42.46
2022-09-23T13:04:13.214Z,42.05
2022-09-23T13:06:47.967Z,41.02
2022-09-23T13:09:21.445Z,40.93
2022-09-23T13:11:48.673Z,41.11
2022-09-23T13:14:25.242Z,41.14
2022-09-23T13:16:56.252Z,40.92
2022-09-23T13:19:25.808Z,41.46
2022-09-23T13:22:07.745Z,40.44
2022-09-23T13:24:47.589Z,39.08
2022-09-23T13:27:32.683Z,40.31
2022-09-23T13:30:07.987Z,40.36
2022-09-23T13:32:39.577Z,40.42
2022-09-23T13:35:32.979Z,40.71
2022-09-23T13:37:59.674Z,40.98
2022-09-23T13:40:28.609Z,40.71
2022-09-23T13:43:03.394Z,40.23
2022-09-23T13:45:31.450Z,40.40
2022-09-23T13:48:08.567Z,40.48
2022-09-23T13:50:38.875Z,40.74
2022-09-23T13:53:16.753Z,41.03
2022-09-23T13:55:43.349Z,41.25
2022-09-23T13:58:18.672Z,40.83
2022-09-23T14:00:46.080Z,41.24
2022-09-23T14:03:24.763Z,41.44
2022-09-23T14:05:53.023Z,41.26
2022-09-23T14:08:20.383Z,41.00
2022-09-23T14:10:47.741Z,41.43
2022-09-23T14:13:25.769Z,40.82
2022-09-23T14:16:01.594Z,40.60
2022-09-23T14:18:30.789Z,40.28
2022-09-23T14:20:57.373Z,39.81
2022-09-23T14:23:23.927Z,39.85
2022-09-23T14:25:52.610Z,40.89
2022-09-23T14:28:22.786Z,40.49
2022-09-23T14:30:52.806Z,40.34
2022-09-23T14:33:26.670Z,40.83
2022-09-23T14:35:57.630Z,40.87
2022-09-23T14:38:48.006Z,40.27
2022-09-23T14:41:25.570Z,40.77
2022-09-23T14:43:57.325Z,40.93
2022-09-23T14:46:27.207Z,40.50
2022-09-23T14:49:06.992Z,40.90
2022-09-23T14:51:56.683Z,40.30
2022-09-23T14:54:39.439Z,40.43
2022-09-23T14:57:26.081Z,40.41
2022-09-23T15:00:00.125Z,40.54
2022-09-23T15:02:33.978Z,40.77
2022-09-23T15:05:18.520Z,40.68
2022-09-23T15:07:49.499Z,40.95
2022-09-23T15:10:27.672Z,40.80
2022-09-23T15:13:03.326Z,40.81
2022-09-23T15:15:29.991Z,40.92
2022-09-23T15:18:07.557Z,40.89
2022-09-23T15:20:34.877Z,41.13
2022-09-23T15:23:01.757Z,40.75
2022-09-23T15:25:34.642Z,40.76
2022-09-23T15:28:13.066Z,41.23
2022-09-23T15:30:39.967Z,40.43
2022-09-23T15:33:06.877Z,40.58
2022-09-23T15:35:33.545Z,40.38
2022-09-23T15:38:01.788Z,40.48
2022-09-23T15:40:31.221Z,40.53
2022-09-23T15:43:00.679Z,40.47
2022-09-23T15:45:33.911Z,40.88
2022-09-23T15:48:22.804Z,40.72
2022-09-23T15:50:50.857Z,40.75
2022-09-23T15:53:31.590Z,40.47
2022-09-23T15:55:58.762Z,40.37
2022-09-23T15:58:26.133Z,40.67
2022-09-23T16:00:56.751Z,40.59
2022-09-23T16:03:31.097Z,40.78
2022-09-23T16:06:02.465Z,40.85
2022-09-23T16:08:30.204Z,40.89
2022-09-23T16:10:56.879Z,40.72
2022-09-23T16:13:23.529Z,41.25
2022-09-23T16:15:50.148Z,41.10
2022-09-23T16:18:16.918Z,41.20
2022-09-23T16:20:45.715Z,41.40
2022-09-23T16:23:40.375Z,41.70
2022-09-23T16:26:15.723Z,41.83
2022-09-23T16:28:43.187Z,41.91
2022-09-23T16:31:11.310Z,41.95
2022-09-23T16:33:38.766Z,41.80
2022-09-23T16:36:09.498Z,41.91
2022-09-23T16:38:35.959Z,42.23
2022-09-23T16:41:03.043Z,41.94
2022-09-23T16:43:39.332Z,42.02
2022-09-23T16:46:12.393Z,42.36
2022-09-23T16:48:40.584Z,42.42
2022-09-23T16:51:08.834Z,42.45
2022-09-23T16:53:36.053Z,42.27
2022-09-23T16:56:09.601Z,42.55
2022-09-23T16:58:37.258Z,42.37
2022-09-23T17:01:23.529Z,42.50
2022-09-23T17:03:50.079Z,42.74
2022-09-23T17:06:19.392Z,42.47
2022-09-23T17:08:48.225Z,42.48
2022-09-23T17:11:16.546Z,42.95
2022-09-23T17:13:44.327Z,42.92
2022-09-23T17:16:21.137Z,42.83
2022-09-23T17:18:47.743Z,42.90
2022-09-23T17:21:14.330Z,43.02
2022-09-23T17:23:41.148Z,42.74
2022-09-23T17:26:09.890Z,42.87
2022-09-23T17:28:36.515Z,43.10
2022-09-23T17:31:05.620Z,43.35
2022-09-23T17:33:37.289Z,43.43
2022-09-23T17:36:12.623Z,43.39
2022-09-23T17:38:39.438Z,43.09
2022-09-23T17:41:07.816Z,43.65
2022-09-23T17:43:36.205Z,43.49
2022-09-23T17:46:11.328Z,43.73
2022-09-23T17:48:40.884Z,43.57
2022-09-23T17:51:21.685Z,43.86
2022-09-23T17:53:49.179Z,43.50
2022-09-23T17:56:21.360Z,43.65
2022-09-23T17:58:49.442Z,43.66
2022-09-23T18:01:17.789Z,43.53
2022-09-23T18:03:45.209Z,43.51
2022-09-23T18:06:13.256Z,43.50
2022-09-23T18:08:41.511Z,43.61
2022-09-23T18:11:24.294Z,43.73
2022-09-23T18:13:56.694Z,43.50
2022-09-23T18:16:26.383Z,43.34
2022-09-23T18:18:57.314Z,43.27
2022-09-23T18:21:28.850Z,43.17
2022-09-23T18:23:59.755Z,43.26
2022-09-23T18:26:29.802Z,43.23
2022-09-23T18:29:01.446Z,43.47
2022-09-23T18:31:32.629Z,43.21
2022-09-23T18:33:59.155Z,43.41
2022-09-23T18:36:25.742Z,43.37
2022-09-23T18:38:53.126Z,43.44
2022-09-23T18:41:19.836Z,43.30
2022-09-23T18:43:48.743Z,43.20
2022-09-23T18:46:21.319Z,43.47
2022-09-23T18:49:06.697Z,43.24
2022-09-23T18:51:35.076Z,43.50
2022-09-23T18:54:03.333Z,43.29
2022-09-23T18:56:33.714Z,43.64
2022-09-23T18:59:00.559Z,43.30
2022-09-23T19:01:27.357Z,43.46
2022-09-23T19:03:58.395Z,43.81
2022-09-23T19:06:25.729Z,43.27
2022-09-23T19:08:54.744Z,43.62
2022-09-23T19:11:22.891Z,43.69
2022-09-23T19:13:57.643Z,43.63
2022-09-23T19:16:25.880Z,43.61
2022-09-23T19:18:53.094Z,43.58
2022-09-23T19:21:22.423Z,44.92
2022-09-23T19:24:04.308Z,44.65
2022-09-23T19:26:34.665Z,45.17
2022-09-23T19:29:02.817Z,45.00
2022-09-23T19:31:33.373Z,45.60
2022-09-23T19:34:11.415Z,45.90
2022-09-23T19:36:40.450Z,45.82
2022-09-23T19:39:12.178Z,45.45
2022-09-23T19:41:38.700Z,45.45
2022-09-23T19:44:07.295Z,44.96
2022-09-23T19:46:37.199Z,44.79
2022-09-23T19:49:05.112Z,44.95
2022-09-23T19:51:36.027Z,44.89
2022-09-23T19:54:04.272Z,44.93
2022-09-23T19:56:32.401Z,44.94
2022-09-23T19:58:59.673Z,45.12
2022-09-23T20:01:27.546Z,45.14
2022-09-23T20:03:54.195Z,44.98
2022-09-23T20:06:22.128Z,45.17
2022-09-23T20:08:49.875Z,45.28
2022-09-23T20:11:24.834Z,45.71
2022-09-23T20:14:00.861Z,45.15
2022-09-23T20:16:33.050Z,45.20
2022-09-23T20:19:00.718Z,45.26
2022-09-23T20:21:29.262Z,45.49
2022-09-23T20:23:56.516Z,45.17
2022-09-23T20:26:41.718Z,44.96
2022-09-23T20:29:08.998Z,45.14
2022-09-23T20:31:35.921Z,45.29
2022-09-23T20:34:05.710Z,45.49
2022-09-23T20:36:33.221Z,45.44
2022-09-23T20:39:02.191Z,45.46
2022-09-23T20:41:37.489Z,45.23
2022-09-23T20:44:07.475Z,45.37
2022-09-23T20:46:34.546Z,45.58
2022-09-23T20:49:02.064Z,45.50
2022-09-23T20:51:28.716Z,45.32
2022-09-23T20:53:56.083Z,45.44
2022-09-23T20:56:23.363Z,45.77
2022-09-23T20:58:50.941Z,45.74
2022-09-23T21:01:18.452Z,45.70
2022-09-23T21:03:47.278Z,45.79
2022-09-23T21:06:16.313Z,45.96
2022-09-23T21:08:44.447Z,45.86
2022-09-23T21:11:16.295Z,46.18
2022-09-23T21:13:51.005Z,46.33
2022-09-23T21:16:22.103Z,46.37
2022-09-23T21:18:50.493Z,46.51
2022-09-23T21:21:19.445Z,46.32
2022-09-23T21:23:47.424Z,46.41
2022-09-23T21:26:19.372Z,46.59
2022-09-23T21:28:48.823Z,46.25
2022-09-23T21:31:35.774Z,46.66
2022-09-23T21:34:10.855Z,46.62
2022-09-23T21:36:39.326Z,46.46
2022-09-23T21:39:07.833Z,46.50
2022-09-23T21:41:34.952Z,46.54
2022-09-23T21:44:04.703Z,46.66
2022-09-23T21:46:33.894Z,46.82
2022-09-23T21:49:03.259Z,46.87
2022-09-23T21:51:40.699Z,47.10
2022-09-23T21:54:12.331Z,47.55
2022-09-23T21:56:38.839Z,47.40
2022-09-23T21:59:07.655Z,47.35
2022-09-23T22:01:36.554Z,47.45
2022-09-23T22:04:12.596Z,47.58
2022-09-23T22:06:40.508Z,47.75
2022-09-23T22:09:10.820Z,47.97
2022-09-23T22:11:57.379Z,48.05
2022-09-23T22:14:25.899Z,48.24
2022-09-23T22:16:59.110Z,48.93
2022-09-23T22:19:28.433Z,48.42
2022-09-23T22:21:55.952Z,48.56
2022-09-23T22:24:22.986Z,48.65
2022-09-23T22:26:50.931Z,48.82
2022-09-23T22:29:37.146Z,49.16
2022-09-23T22:32:24.099Z,49.17
2022-09-23T22:34:52.134Z,48.99
2022-09-23T22:37:23.783Z,49.40
2022-09-23T22:39:50.264Z,49.28
2022-09-23T22:42:17.050Z,49.74
2022-09-23T22:44:43.536Z,49.94
2022-09-23T22:47:10.696Z,50.05
2022-09-23T22:49:37.182Z,50.11
2022-09-23T22:52:08.478Z,50.70
2022-09-23T22:54:35.964Z,50.81
2022-09-23T22:57:09.910Z,51.56
2022-09-23T22:59:37.624Z,50.81
2022-09-23T23:02:05.126Z,50.98
2022-09-23T23:04:31.840Z,50.71
2022-09-23T23:06:58.961Z,51.07
2022-09-23T23:09:25.926Z,50.97
2022-09-23T23:11:52.490Z,51.14
2022-09-23T23:14:19.301Z,51.24
2022-09-23T23:16:46.264Z,51.03
2022-09-23T23:19:17.114Z,51.86
2022-09-23T23:21:45.584Z,51.52
2022-09-23T23:24:17.807Z,52.31
2022-09-23T23:26:45.298Z,51.67
2022-09-23T23:29:13.515Z,52.07
2022-09-23T23:31:40.600Z,52.41
2022-09-23T23:34:10.696Z,52.67
2022-09-23T23:36:37.588Z,52.77
2022-09-23T23:39:04.506Z,53.06
2022-09-23T23:41:31.718Z,53.49
2022-09-23T23:44:00.365Z,53.78
2022-09-23T23:46:30.766Z,54.26
2022-09-23T23:48:58.594Z,53.63
2022-09-23T23:51:26.904Z,53.83
2022-09-23T23:53:54.411Z,53.98
2022-09-23T23:56:24.276Z,54.28
2022-09-23T23:58:55.559Z,54.77
